Kerens, TX

1:35 AM CDT on May 26, 2015 (GMT -0500)
Vista Ski Lakes | | Change Station
CLOSE
Current Station
Personal Weather Station
Location: Kerens, TX
Elevation: 367 ft
Nearby Weather Stations

Elev 367 ft 32.22 °N, 96.29 °W | Updated 5 minutes ago

Overcast
Overcast
64.9 °F
Feels Like 64.9 °F
N
0.0
Wind Variable Wind from ESE

Today
High -- | Low -- °F
--% Chance of Precip.
Yesterday
High -- | Low -- °F
Precip. -- in
6:21 AM 8:23 PM
First Quarter, 55% visible
Pressure 29.91 in
Visibility 10.0 miles
Clouds Overcast 700 ft
Dew Point 64 °F
Humidity 98%
Rainfall 0.00 in
Snow Depth Not available.
UV 0 out of 12
Pollen 4.00 out of 12
Air Quality Not available.
Flu Activity Sporadic
METAR KCRS 260553Z AUTO 21008KT 10SM OVC007 19/17 A2992 RMK AO2 SLP128 6//// T01890172 10200 20189 402780189 51014 $

More Conditions Fewer Conditions

Pressure 29.91 in
Visibility 10.0 miles
Clouds Overcast 700 ft
Dew Point 64 °F
Humidity 98%
Rainfall 0.00 in
Snow Depth Not available.
UV 0 out of 12
Pollen 4.00 out of 12
Air Quality Not available.
Flu Activity Sporadic
METAR KCRS 260553Z AUTO 21008KT 10SM OVC007 19/17 A2992 RMK AO2 SLP128 6//// T01890172 10200 20189 402780189 51014 $

More Conditions Fewer Conditions

10-Day Weather Forecast

Almanac

Astronomy

May. 26, 2015 Rise Set
Actual Time
Civil Twilight
Nautical Twilight
Astronomical Twilight
Moon
Length of Visible Light
Length of Day
Tomorrow will be .
, % of the Moon is Illuminated

Today's Extremes

State Highs State Lows

Community

WunderPhotos

Upload Photos

1,824,294 photos uploaded!

WunderBlogs® & News

Nearby

Air Quality

  Air Quality AQ Index Pollutant
Not available.

Snow Depth

Station Depth Elevation

Earthquake Activity

City Distance Mag. Time & Date
Minimum magnitude displayed is 2.5.

Coastal Water Temperatures

Place Temperature

Stations

Nearby Weather Stations

Station Location Temp. Windchill Dew Point Humidity Wind Precip. Elev Updated Type